KLM1128 LSZH-EHAM
Flight info
| Callsign | KLM1128 |
|---|---|
| Flight time | 1h 11m |
| Altitude | 38000 |
| Route | VEBIT T10 TORPA DCT EDOPI DCT GIVOR DCT SORAL DCT IBERA DCT BUB/N0448F300 Y28 HELEN |
| Aircraft | B738/M-SDE2E3FGHIRWXY/LB1 |
Departure
| Time | 2026-05-07 17:44 |
|---|---|
| Airport | Zürich Airport (LSZH) |
Arrival
| Time | 2026-05-07 18:55 |
|---|---|
| Airport | Amsterdam Airport Schiphol (EHAM) |
| Time | Latitude | Longitude | Altitude | Speed | Heading |
|---|---|---|---|---|---|
| 2026-05-07 17:10 | 47.45350 | 8.55646 | 1405 ft | 0 kts | 6° |
| 2026-05-07 17:32 | 47.45338 | 8.55645 | 1405 ft | 4 kts | 4° |
| 2026-05-07 17:32 | 47.45312 | 8.55644 | 1405 ft | 4 kts | 355° |
| 2026-05-07 17:32 | 47.45286 | 8.55651 | 1401 ft | 4 kts | 334° |
| 2026-05-07 17:33 | 47.45270 | 8.55673 | 1403 ft | 3 kts | 279° |
| 2026-05-07 17:33 | 47.45269 | 8.55677 | 1403 ft | 1 kts | 276° |
| 2026-05-07 17:35 | 47.45270 | 8.55673 | 1403 ft | 2 kts | 275° |
| 2026-05-07 17:35 | 47.45273 | 8.55619 | 1404 ft | 8 kts | 275° |
| 2026-05-07 17:35 | 47.45260 | 8.55542 | 1398 ft | 8 kts | 226° |
| 2026-05-07 17:35 | 47.45210 | 8.55513 | 1396 ft | 8 kts | 185° |
| 2026-05-07 17:36 | 47.45156 | 8.55541 | 1403 ft | 10 kts | 156° |
| 2026-05-07 17:36 | 47.45084 | 8.55590 | 1403 ft | 13 kts | 154° |
| 2026-05-07 17:36 | 47.44992 | 8.55655 | 1397 ft | 16 kts | 155° |
| 2026-05-07 17:36 | 47.44882 | 8.55729 | 1403 ft | 18 kts | 155° |
| 2026-05-07 17:37 | 47.44768 | 8.55805 | 1399 ft | 18 kts | 155° |
| 2026-05-07 17:37 | 47.44653 | 8.55845 | 1399 ft | 17 kts | 196° |
| 2026-05-07 17:37 | 47.44602 | 8.55705 | 1396 ft | 17 kts | 280° |
| 2026-05-07 17:37 | 47.44644 | 8.55610 | 1394 ft | 0 kts | 331° |
| 2026-05-07 17:40 | 47.44753 | 8.55531 | 1399 ft | 0 kts | 334° |
| 2026-05-07 17:43 | 47.45097 | 8.55295 | 1399 ft | 104 kts | 336° |
| 2026-05-07 17:44 | 47.45985 | 8.54708 | 1675 ft | 163 kts | 338° |
| 2026-05-07 17:44 | 47.47126 | 8.54119 | 2606 ft | 183 kts | 342° |
| 2026-05-07 17:44 | 47.48331 | 8.53602 | 3923 ft | 179 kts | 345° |
| 2026-05-07 17:44 | 47.49500 | 8.52970 | 4968 ft | 191 kts | 327° |
| 2026-05-07 17:45 | 47.50707 | 8.51827 | 5389 ft | 221 kts | 329° |
| 2026-05-07 17:45 | 47.52071 | 8.50681 | 6237 ft | 225 kts | 327° |
| 2026-05-07 17:45 | 47.53165 | 8.49063 | 7152 ft | 225 kts | 298° |
| 2026-05-07 17:45 | 47.53679 | 8.46887 | 8076 ft | 225 kts | 276° |
| 2026-05-07 17:46 | 47.53618 | 8.44595 | 9034 ft | 224 kts | 256° |
| 2026-05-07 17:46 | 47.53076 | 8.42430 | 9999 ft | 225 kts | 245° |
| 2026-05-07 17:46 | 47.52353 | 8.40367 | 10810 ft | 228 kts | 234° |
| 2026-05-07 17:46 | 47.51153 | 8.38798 | 11553 ft | 239 kts | 211° |
| 2026-05-07 17:47 | 47.49507 | 8.37917 | 11873 ft | 268 kts | 196° |
| 2026-05-07 17:47 | 47.47613 | 8.37317 | 12117 ft | 296 kts | 193° |
| 2026-05-07 17:47 | 47.45492 | 8.36686 | 12341 ft | 324 kts | 193° |
| 2026-05-07 17:47 | 47.43201 | 8.35976 | 12604 ft | 347 kts | 194° |
| 2026-05-07 17:48 | 47.40834 | 8.35047 | 13233 ft | 355 kts | 205° |
| 2026-05-07 17:48 | 47.38793 | 8.33043 | 14061 ft | 355 kts | 224° |
| 2026-05-07 17:48 | 47.37302 | 8.30138 | 14845 ft | 357 kts | 244° |
| 2026-05-07 17:48 | 47.36532 | 8.26648 | 15612 ft | 361 kts | 260° |
| 2026-05-07 17:49 | 47.36504 | 8.22925 | 16343 ft | 367 kts | 274° |
| 2026-05-07 17:49 | 47.36774 | 8.19158 | 17063 ft | 372 kts | 276° |
| 2026-05-07 17:49 | 47.37097 | 8.15343 | 17791 ft | 376 kts | 276° |
| 2026-05-07 17:49 | 47.37432 | 8.11499 | 18473 ft | 381 kts | 276° |
| 2026-05-07 17:50 | 47.37765 | 8.07599 | 19109 ft | 384 kts | 276° |
| 2026-05-07 17:50 | 47.38089 | 8.03686 | 19782 ft | 386 kts | 276° |
| 2026-05-07 17:50 | 47.38402 | 7.99781 | 20399 ft | 389 kts | 276° |
| 2026-05-07 17:50 | 47.38714 | 7.95789 | 21020 ft | 392 kts | 276° |
| 2026-05-07 17:51 | 47.39024 | 7.91770 | 21613 ft | 396 kts | 276° |
| 2026-05-07 17:51 | 47.39332 | 7.87729 | 22218 ft | 399 kts | 276° |
| 2026-05-07 17:51 | 47.39641 | 7.83645 | 22806 ft | 402 kts | 276° |
| 2026-05-07 17:51 | 47.39950 | 7.79525 | 23365 ft | 406 kts | 276° |
| 2026-05-07 17:52 | 47.40261 | 7.75362 | 23870 ft | 409 kts | 276° |
| 2026-05-07 17:52 | 47.40572 | 7.71182 | 24363 ft | 410 kts | 276° |
| 2026-05-07 17:52 | 47.40883 | 7.66986 | 24873 ft | 412 kts | 276° |
| 2026-05-07 17:52 | 47.41194 | 7.62770 | 25334 ft | 414 kts | 276° |
| 2026-05-07 17:53 | 47.41504 | 7.58531 | 25792 ft | 417 kts | 276° |
| 2026-05-07 17:53 | 47.41816 | 7.54267 | 26238 ft | 419 kts | 276° |
| 2026-05-07 17:53 | 47.42392 | 7.50047 | 26616 ft | 424 kts | 291° |
| 2026-05-07 17:53 | 47.43918 | 7.46305 | 27016 ft | 430 kts | 308° |
| 2026-05-07 17:54 | 47.46099 | 7.43258 | 27418 ft | 436 kts | 322° |
| 2026-05-07 17:54 | 47.48702 | 7.40917 | 27847 ft | 439 kts | 328° |
| 2026-05-07 17:54 | 47.51344 | 7.38715 | 28218 ft | 442 kts | 328° |
| 2026-05-07 17:54 | 47.54043 | 7.36497 | 28563 ft | 445 kts | 328° |
| 2026-05-07 17:55 | 47.56749 | 7.34263 | 28929 ft | 447 kts | 328° |
| 2026-05-07 17:55 | 47.59474 | 7.31992 | 29287 ft | 449 kts | 328° |
| 2026-05-07 17:55 | 47.62204 | 7.29693 | 29623 ft | 451 kts | 328° |
| 2026-05-07 17:55 | 47.64935 | 7.27375 | 29999 ft | 453 kts | 327° |
| 2026-05-07 17:56 | 47.67660 | 7.25049 | 30427 ft | 451 kts | 327° |
| 2026-05-07 17:56 | 47.70370 | 7.22730 | 30880 ft | 449 kts | 327° |
| 2026-05-07 17:56 | 47.73071 | 7.20415 | 31274 ft | 448 kts | 327° |
| 2026-05-07 17:56 | 47.75767 | 7.18098 | 31631 ft | 448 kts | 327° |
| 2026-05-07 17:57 | 47.78467 | 7.15777 | 32009 ft | 447 kts | 327° |
| 2026-05-07 17:57 | 47.80249 | 7.14244 | 32285 ft | 446 kts | 327° |
| 2026-05-07 17:57 | 47.83798 | 7.11188 | 32805 ft | 445 kts | 327° |
| 2026-05-07 17:57 | 47.86477 | 7.08878 | 33177 ft | 444 kts | 327° |
| 2026-05-07 17:58 | 47.89148 | 7.06571 | 33566 ft | 443 kts | 327° |
| 2026-05-07 17:58 | 47.91811 | 7.04270 | 33979 ft | 442 kts | 327° |
| 2026-05-07 17:58 | 47.94461 | 7.01977 | 34301 ft | 441 kts | 327° |
| 2026-05-07 17:58 | 47.97125 | 6.99668 | 34535 ft | 443 kts | 327° |
| 2026-05-07 17:59 | 47.99794 | 6.97352 | 34744 ft | 444 kts | 327° |
| 2026-05-07 17:59 | 48.02466 | 6.95032 | 35028 ft | 444 kts | 327° |
| 2026-05-07 17:59 | 48.05137 | 6.92709 | 35310 ft | 444 kts | 327° |
| 2026-05-07 17:59 | 48.07810 | 6.90382 | 35547 ft | 445 kts | 327° |
| 2026-05-07 18:00 | 48.10487 | 6.88049 | 35798 ft | 446 kts | 327° |
| 2026-05-07 18:00 | 48.13167 | 6.85711 | 36059 ft | 446 kts | 326° |
| 2026-05-07 18:00 | 48.15847 | 6.83369 | 36316 ft | 446 kts | 326° |
| 2026-05-07 18:00 | 48.18534 | 6.81018 | 36552 ft | 447 kts | 326° |
| 2026-05-07 18:01 | 48.21220 | 6.78666 | 36786 ft | 447 kts | 326° |
| 2026-05-07 18:01 | 48.23879 | 6.76334 | 37031 ft | 448 kts | 326° |
| 2026-05-07 18:01 | 48.26569 | 6.73973 | 37267 ft | 448 kts | 326° |
| 2026-05-07 18:01 | 48.29256 | 6.71610 | 37497 ft | 449 kts | 326° |
| 2026-05-07 18:02 | 48.34656 | 6.66855 | 37949 ft | 450 kts | 326° |
| 2026-05-07 18:02 | 48.37359 | 6.64469 | 38055 ft | 452 kts | 326° |
| 2026-05-07 18:03 | 48.42806 | 6.59653 | 38053 ft | 453 kts | 326° |
| 2026-05-07 18:03 | 48.48211 | 6.54866 | 38042 ft | 449 kts | 326° |
| 2026-05-07 18:04 | 48.53544 | 6.50127 | 38048 ft | 446 kts | 326° |
| 2026-05-07 18:04 | 48.58882 | 6.45372 | 38044 ft | 444 kts | 326° |
| 2026-05-07 18:05 | 48.64341 | 6.40974 | 38035 ft | 449 kts | 338° |
| 2026-05-07 18:05 | 48.70527 | 6.39372 | 38047 ft | 458 kts | 359° |
| 2026-05-07 18:06 | 48.76908 | 6.39426 | 38050 ft | 456 kts | 347° |
| 2026-05-07 18:06 | 48.82850 | 6.36344 | 38048 ft | 450 kts | 328° |
| 2026-05-07 18:07 | 48.88302 | 6.31713 | 38052 ft | 453 kts | 327° |
| 2026-05-07 18:07 | 48.93808 | 6.26971 | 38052 ft | 456 kts | 328° |
| 2026-05-07 18:08 | 48.99352 | 6.22252 | 38049 ft | 457 kts | 328° |
| 2026-05-07 18:08 | 49.04921 | 6.17543 | 38045 ft | 458 kts | 328° |
| 2026-05-07 18:09 | 49.10491 | 6.12832 | 38052 ft | 457 kts | 328° |
| 2026-05-07 18:09 | 49.16059 | 6.08112 | 38048 ft | 457 kts | 328° |
| 2026-05-07 18:10 | 49.21576 | 6.03419 | 38055 ft | 456 kts | 328° |
| 2026-05-07 18:10 | 49.27112 | 5.98696 | 38049 ft | 455 kts | 328° |
| 2026-05-07 18:11 | 49.32636 | 5.93972 | 38042 ft | 454 kts | 328° |
| 2026-05-07 18:11 | 49.38143 | 5.89250 | 38049 ft | 453 kts | 328° |
| 2026-05-07 18:12 | 49.43666 | 5.84529 | 38046 ft | 454 kts | 330° |
| 2026-05-07 18:12 | 49.49436 | 5.80553 | 38055 ft | 455 kts | 335° |
| 2026-05-07 18:13 | 49.55297 | 5.76857 | 38050 ft | 455 kts | 335° |
| 2026-05-07 18:13 | 49.61107 | 5.73141 | 38052 ft | 455 kts | 334° |
| 2026-05-07 18:14 | 49.66939 | 5.69328 | 38056 ft | 455 kts | 334° |
| 2026-05-07 18:14 | 49.72771 | 5.65474 | 38052 ft | 455 kts | 334° |
| 2026-05-07 18:15 | 49.78600 | 5.61606 | 38058 ft | 456 kts | 334° |
| 2026-05-07 18:15 | 49.84437 | 5.57725 | 38056 ft | 457 kts | 334° |
| 2026-05-07 18:16 | 49.90284 | 5.53828 | 38058 ft | 457 kts | 334° |
| 2026-05-07 18:16 | 49.96133 | 5.49921 | 38056 ft | 457 kts | 334° |
| 2026-05-07 18:17 | 50.02012 | 5.45979 | 37224 ft | 464 kts | 334° |
| 2026-05-07 18:17 | 50.04924 | 5.44013 | 36581 ft | 459 kts | 334° |
| 2026-05-07 18:17 | 50.07879 | 5.42028 | 35989 ft | 454 kts | 334° |
| 2026-05-07 18:17 | 50.10733 | 5.40113 | 35432 ft | 449 kts | 334° |
| 2026-05-07 18:18 | 50.13590 | 5.38194 | 34879 ft | 445 kts | 334° |
| 2026-05-07 18:18 | 50.16416 | 5.36292 | 34338 ft | 440 kts | 334° |
| 2026-05-07 18:18 | 50.19212 | 5.34406 | 33749 ft | 437 kts | 334° |
| 2026-05-07 18:18 | 50.22012 | 5.32511 | 33136 ft | 442 kts | 334° |
| 2026-05-07 18:19 | 50.24854 | 5.30583 | 32519 ft | 449 kts | 334° |
| 2026-05-07 18:19 | 50.27740 | 5.28622 | 31943 ft | 453 kts | 334° |
| 2026-05-07 18:19 | 50.30626 | 5.26662 | 31379 ft | 453 kts | 334° |
| 2026-05-07 18:19 | 50.33518 | 5.24695 | 30825 ft | 453 kts | 334° |
| 2026-05-07 18:20 | 50.35474 | 5.23365 | 30460 ft | 453 kts | 334° |
| 2026-05-07 18:20 | 50.38326 | 5.21422 | 29894 ft | 453 kts | 334° |
| 2026-05-07 18:20 | 50.41218 | 5.19449 | 29265 ft | 453 kts | 334° |
| 2026-05-07 18:20 | 50.44128 | 5.17460 | 28655 ft | 458 kts | 334° |
| 2026-05-07 18:21 | 50.47060 | 5.15453 | 28062 ft | 464 kts | 334° |
| 2026-05-07 18:21 | 50.50030 | 5.13417 | 27479 ft | 465 kts | 334° |
| 2026-05-07 18:21 | 50.52996 | 5.11382 | 26900 ft | 465 kts | 334° |
| 2026-05-07 18:21 | 50.55961 | 5.09345 | 26333 ft | 465 kts | 334° |
| 2026-05-07 18:22 | 50.58932 | 5.07303 | 25775 ft | 465 kts | 334° |
| 2026-05-07 18:22 | 50.60889 | 5.05955 | 25420 ft | 465 kts | 334° |
| 2026-05-07 18:22 | 50.64847 | 5.03225 | 25160 ft | 465 kts | 334° |
| 2026-05-07 18:22 | 50.67807 | 5.01181 | 25090 ft | 464 kts | 334° |
| 2026-05-07 18:23 | 50.70761 | 4.99137 | 25081 ft | 463 kts | 334° |
| 2026-05-07 18:23 | 50.73716 | 4.97090 | 25073 ft | 463 kts | 334° |
| 2026-05-07 18:23 | 50.76659 | 4.95048 | 25074 ft | 463 kts | 334° |
| 2026-05-07 18:23 | 50.79616 | 4.92994 | 25075 ft | 463 kts | 334° |
| 2026-05-07 18:24 | 50.82572 | 4.90937 | 25073 ft | 463 kts | 334° |
| 2026-05-07 18:24 | 50.85484 | 4.88909 | 25074 ft | 463 kts | 334° |
| 2026-05-07 18:24 | 50.88440 | 4.86846 | 25078 ft | 463 kts | 334° |
| 2026-05-07 18:24 | 50.91390 | 4.84785 | 25073 ft | 463 kts | 334° |
| 2026-05-07 18:25 | 50.94335 | 4.82725 | 24948 ft | 465 kts | 334° |
| 2026-05-07 18:25 | 50.97295 | 4.80651 | 24430 ft | 463 kts | 334° |
| 2026-05-07 18:25 | 51.00229 | 4.78594 | 23958 ft | 456 kts | 334° |
| 2026-05-07 18:25 | 51.03121 | 4.76564 | 23465 ft | 453 kts | 334° |
| 2026-05-07 18:26 | 51.05998 | 4.74541 | 22913 ft | 451 kts | 334° |
| 2026-05-07 18:26 | 51.08865 | 4.72521 | 22370 ft | 448 kts | 334° |
| 2026-05-07 18:26 | 51.11715 | 4.70510 | 21838 ft | 446 kts | 334° |
| 2026-05-07 18:26 | 51.14542 | 4.68513 | 21311 ft | 443 kts | 334° |
| 2026-05-07 18:27 | 51.17346 | 4.66530 | 20793 ft | 440 kts | 334° |
| 2026-05-07 18:27 | 51.20133 | 4.64557 | 20311 ft | 436 kts | 334° |
| 2026-05-07 18:27 | 51.22898 | 4.62596 | 20136 ft | 434 kts | 334° |
| 2026-05-07 18:27 | 51.25620 | 4.60663 | 20087 ft | 433 kts | 334° |
| 2026-05-07 18:28 | 51.28368 | 4.58708 | 20079 ft | 432 kts | 334° |
| 2026-05-07 18:28 | 51.31115 | 4.56752 | 20078 ft | 432 kts | 334° |
| 2026-05-07 18:28 | 51.33863 | 4.54793 | 20074 ft | 432 kts | 334° |
| 2026-05-07 18:28 | 51.36621 | 4.52824 | 20077 ft | 432 kts | 334° |
| 2026-05-07 18:29 | 51.39361 | 4.50866 | 20067 ft | 432 kts | 334° |
| 2026-05-07 18:29 | 51.42114 | 4.48895 | 19388 ft | 432 kts | 334° |
| 2026-05-07 18:29 | 51.44841 | 4.46941 | 18791 ft | 426 kts | 335° |
| 2026-05-07 18:29 | 51.47524 | 4.45017 | 18182 ft | 420 kts | 335° |
| 2026-05-07 18:30 | 51.50184 | 4.43106 | 17517 ft | 417 kts | 335° |
| 2026-05-07 18:30 | 51.52821 | 4.41209 | 16855 ft | 414 kts | 335° |
| 2026-05-07 18:30 | 51.55441 | 4.39321 | 16173 ft | 412 kts | 335° |
| 2026-05-07 18:30 | 51.58051 | 4.37439 | 15480 ft | 410 kts | 335° |
| 2026-05-07 18:31 | 51.60647 | 4.35564 | 14825 ft | 408 kts | 335° |
| 2026-05-07 18:31 | 51.63224 | 4.33700 | 14171 ft | 404 kts | 334° |
| 2026-05-07 18:31 | 51.65745 | 4.31875 | 13490 ft | 400 kts | 334° |
| 2026-05-07 18:31 | 51.68271 | 4.30044 | 12775 ft | 396 kts | 334° |
| 2026-05-07 18:32 | 51.70781 | 4.28222 | 12081 ft | 393 kts | 334° |
| 2026-05-07 18:32 | 51.73261 | 4.26421 | 11395 ft | 388 kts | 334° |
| 2026-05-07 18:32 | 51.75704 | 4.24643 | 10728 ft | 382 kts | 334° |
| 2026-05-07 18:32 | 51.78113 | 4.22887 | 10066 ft | 377 kts | 334° |
| 2026-05-07 18:33 | 51.80491 | 4.21153 | 9349 ft | 373 kts | 334° |
| 2026-05-07 18:33 | 51.82846 | 4.19434 | 8641 ft | 369 kts | 335° |
| 2026-05-07 18:33 | 51.85173 | 4.17733 | 7941 ft | 365 kts | 335° |
| 2026-05-07 18:33 | 51.87475 | 4.16053 | 7350 ft | 359 kts | 336° |
| 2026-05-07 18:34 | 51.89871 | 4.15057 | 6758 ft | 356 kts | 357° |
| 2026-05-07 18:34 | 51.92297 | 4.15577 | 6187 ft | 351 kts | 18° |
| 2026-05-07 18:34 | 51.94459 | 4.17317 | 5568 ft | 346 kts | 37° |
| 2026-05-07 18:34 | 51.96320 | 4.19708 | 5235 ft | 335 kts | 40° |
| 2026-05-07 18:35 | 51.98069 | 4.22066 | 5108 ft | 319 kts | 41° |
| 2026-05-07 18:35 | 51.99724 | 4.24309 | 5071 ft | 301 kts | 41° |
| 2026-05-07 18:35 | 52.01292 | 4.26422 | 5057 ft | 285 kts | 40° |
| 2026-05-07 18:35 | 52.02783 | 4.28420 | 5056 ft | 272 kts | 40° |
| 2026-05-07 18:36 | 52.04237 | 4.30365 | 5066 ft | 269 kts | 40° |
| 2026-05-07 18:36 | 52.05683 | 4.32295 | 5078 ft | 269 kts | 40° |
| 2026-05-07 18:36 | 52.07114 | 4.34203 | 5088 ft | 270 kts | 40° |
| 2026-05-07 18:36 | 52.08569 | 4.36142 | 5080 ft | 271 kts | 40° |
| 2026-05-07 18:37 | 52.10026 | 4.38084 | 5074 ft | 270 kts | 40° |
| 2026-05-07 18:37 | 52.11459 | 4.39994 | 5065 ft | 260 kts | 40° |
| 2026-05-07 18:37 | 52.12822 | 4.41811 | 5060 ft | 246 kts | 40° |
| 2026-05-07 18:37 | 52.14107 | 4.43525 | 5077 ft | 230 kts | 40° |
| 2026-05-07 18:38 | 52.15297 | 4.45113 | 5072 ft | 212 kts | 40° |
| 2026-05-07 18:38 | 52.16389 | 4.46572 | 5061 ft | 198 kts | 40° |
| 2026-05-07 18:38 | 52.17460 | 4.48005 | 5092 ft | 199 kts | 40° |
| 2026-05-07 18:38 | 52.18547 | 4.49461 | 4743 ft | 209 kts | 40° |
| 2026-05-07 18:39 | 52.19684 | 4.50985 | 4242 ft | 212 kts | 40° |
| 2026-05-07 18:39 | 52.20785 | 4.52577 | 3714 ft | 211 kts | 51° |
| 2026-05-07 18:39 | 52.21600 | 4.54492 | 3263 ft | 202 kts | 59° |
| 2026-05-07 18:39 | 52.22302 | 4.56366 | 3049 ft | 184 kts | 60° |
| 2026-05-07 18:40 | 52.22927 | 4.58031 | 2993 ft | 164 kts | 59° |
| 2026-05-07 18:40 | 52.23517 | 4.59609 | 2972 ft | 155 kts | 60° |
| 2026-05-07 18:40 | 52.24053 | 4.61036 | 2981 ft | 145 kts | 60° |
| 2026-05-07 18:40 | 52.24310 | 4.62630 | 3019 ft | 162 kts | 95° |
| 2026-05-07 18:41 | 52.23890 | 4.64486 | 3002 ft | 181 kts | 126° |
| 2026-05-07 18:41 | 52.22905 | 4.65744 | 2997 ft | 183 kts | 153° |
| 2026-05-07 18:41 | 52.21735 | 4.66655 | 2988 ft | 189 kts | 152° |
| 2026-05-07 18:41 | 52.20538 | 4.67599 | 2996 ft | 191 kts | 153° |
| 2026-05-07 18:42 | 52.19355 | 4.68537 | 2992 ft | 187 kts | 152° |
| 2026-05-07 18:42 | 52.18192 | 4.69454 | 2986 ft | 184 kts | 152° |
| 2026-05-07 18:42 | 52.16970 | 4.70054 | 2992 ft | 186 kts | 177° |
| 2026-05-07 18:42 | 52.15713 | 4.69568 | 3007 ft | 190 kts | 209° |
| 2026-05-07 18:43 | 52.14759 | 4.68080 | 3007 ft | 194 kts | 236° |
| 2026-05-07 18:43 | 52.14042 | 4.66204 | 3013 ft | 196 kts | 237° |
| 2026-05-07 18:43 | 52.13321 | 4.64310 | 3015 ft | 198 kts | 237° |
| 2026-05-07 18:43 | 52.12600 | 4.62422 | 3022 ft | 194 kts | 237° |
| 2026-05-07 18:44 | 52.11905 | 4.60595 | 3019 ft | 190 kts | 237° |
| 2026-05-07 18:44 | 52.11213 | 4.58775 | 3017 ft | 189 kts | 237° |
| 2026-05-07 18:44 | 52.10519 | 4.56946 | 3012 ft | 191 kts | 237° |
| 2026-05-07 18:44 | 52.09818 | 4.55093 | 3014 ft | 194 kts | 237° |
| 2026-05-07 18:45 | 52.09108 | 4.53220 | 3006 ft | 194 kts | 237° |
| 2026-05-07 18:45 | 52.08396 | 4.51348 | 3005 ft | 195 kts | 237° |
| 2026-05-07 18:45 | 52.07681 | 4.49470 | 2999 ft | 195 kts | 238° |
| 2026-05-07 18:45 | 52.07224 | 4.47407 | 2994 ft | 196 kts | 265° |
| 2026-05-07 18:46 | 52.07225 | 4.45210 | 3009 ft | 194 kts | 272° |
| 2026-05-07 18:46 | 52.07272 | 4.43025 | 3001 ft | 193 kts | 272° |
| 2026-05-07 18:46 | 52.07322 | 4.40840 | 3001 ft | 193 kts | 272° |
| 2026-05-07 18:46 | 52.07372 | 4.38666 | 3003 ft | 193 kts | 272° |
| 2026-05-07 18:47 | 52.07493 | 4.36492 | 2999 ft | 194 kts | 286° |
| 2026-05-07 18:47 | 52.08150 | 4.34613 | 3009 ft | 192 kts | 312° |
| 2026-05-07 18:47 | 52.09031 | 4.32973 | 2999 ft | 193 kts | 312° |
| 2026-05-07 18:47 | 52.09914 | 4.31316 | 2992 ft | 194 kts | 315° |
| 2026-05-07 18:48 | 52.11020 | 4.30140 | 2995 ft | 190 kts | 348° |
| 2026-05-07 18:48 | 52.12259 | 4.30459 | 2998 ft | 182 kts | 38° |
| 2026-05-07 18:48 | 52.13011 | 4.32053 | 3013 ft | 178 kts | 62° |
| 2026-05-07 18:48 | 52.13669 | 4.33779 | 3007 ft | 180 kts | 59° |
| 2026-05-07 18:49 | 52.14341 | 4.35502 | 3004 ft | 181 kts | 59° |
| 2026-05-07 18:49 | 52.15009 | 4.37240 | 3002 ft | 181 kts | 60° |
| 2026-05-07 18:49 | 52.15667 | 4.38968 | 3003 ft | 183 kts | 60° |
| 2026-05-07 18:49 | 52.16345 | 4.40751 | 3008 ft | 183 kts | 59° |
| 2026-05-07 18:50 | 52.17017 | 4.42519 | 2999 ft | 184 kts | 60° |
| 2026-05-07 18:50 | 52.17681 | 4.44267 | 3001 ft | 184 kts | 60° |
| 2026-05-07 18:50 | 52.18352 | 4.46034 | 3000 ft | 182 kts | 60° |
| 2026-05-07 18:50 | 52.19018 | 4.47786 | 3008 ft | 180 kts | 59° |
| 2026-05-07 18:51 | 52.19672 | 4.49504 | 3013 ft | 177 kts | 59° |
| 2026-05-07 18:51 | 52.20326 | 4.51225 | 3012 ft | 181 kts | 59° |
| 2026-05-07 18:51 | 52.20997 | 4.52988 | 2945 ft | 185 kts | 59° |
| 2026-05-07 18:51 | 52.21683 | 4.54790 | 2710 ft | 186 kts | 59° |
| 2026-05-07 18:52 | 52.22355 | 4.56552 | 2468 ft | 180 kts | 59° |
| 2026-05-07 18:52 | 52.23006 | 4.58259 | 2221 ft | 175 kts | 59° |
| 2026-05-07 18:52 | 52.23649 | 4.59948 | 1994 ft | 176 kts | 58° |
| 2026-05-07 18:52 | 52.24294 | 4.61638 | 1755 ft | 174 kts | 58° |
| 2026-05-07 18:53 | 52.24921 | 4.63283 | 1502 ft | 168 kts | 58° |
| 2026-05-07 18:53 | 52.25518 | 4.64846 | 1289 ft | 158 kts | 58° |
| 2026-05-07 18:53 | 52.26073 | 4.66300 | 1080 ft | 142 kts | 58° |
| 2026-05-07 18:53 | 52.26572 | 4.67605 | 922 ft | 133 kts | 58° |
| 2026-05-07 18:54 | 52.27060 | 4.68882 | 718 ft | 134 kts | 58° |
| 2026-05-07 18:54 | 52.27550 | 4.70165 | 533 ft | 132 kts | 57° |
| 2026-05-07 18:54 | 52.28024 | 4.71420 | 386 ft | 131 kts | 57° |
| 2026-05-07 18:54 | 52.28525 | 4.72697 | 229 ft | 138 kts | 57° |
| 2026-05-07 18:55 | 52.29020 | 4.73987 | 49 ft | 127 kts | 57° |
| 2026-05-07 18:55 | 52.29434 | 4.75061 | -3 ft | 72 kts | 58° |
| 2026-05-07 18:55 | 52.29570 | 4.75405 | -3 ft | 29 kts | 57° |
| 2026-05-07 18:55 | 52.29651 | 4.75610 | -2 ft | 12 kts | 57° |
| 2026-05-07 18:56 | 52.29706 | 4.75734 | -3 ft | 14 kts | 35° |
| 2026-05-07 18:56 | 52.29788 | 4.75808 | -3 ft | 13 kts | 28° |
| 2026-05-07 18:56 | 52.29865 | 4.75874 | -2 ft | 11 kts | 27° |
| 2026-05-07 18:56 | 52.29931 | 4.75930 | -2 ft | 11 kts | 27° |
| 2026-05-07 18:57 | 52.29998 | 4.76011 | -2 ft | 13 kts | 54° |
| 2026-05-07 18:57 | 52.30049 | 4.76131 | -2 ft | 13 kts | 55° |
| 2026-05-07 18:57 | 52.30099 | 4.76248 | -2 ft | 12 kts | 57° |
| 2026-05-07 18:57 | 52.30144 | 4.76366 | -2 ft | 12 kts | 60° |
| 2026-05-07 18:58 | 52.30185 | 4.76484 | -2 ft | 12 kts | 60° |
| 2026-05-07 18:58 | 52.30226 | 4.76598 | -2 ft | 11 kts | 59° |
| 2026-05-07 18:58 | 52.30268 | 4.76707 | -2 ft | 12 kts | 57° |
| 2026-05-07 18:58 | 52.30323 | 4.76847 | -2 ft | 19 kts | 57° |
| 2026-05-07 18:59 | 52.30398 | 4.77039 | -2 ft | 21 kts | 57° |
| 2026-05-07 18:59 | 52.30480 | 4.77248 | -2 ft | 22 kts | 57° |
| 2026-05-07 18:59 | 52.30562 | 4.77465 | -2 ft | 22 kts | 58° |
| 2026-05-07 18:59 | 52.30679 | 4.77589 | -2 ft | 22 kts | 4° |
| 2026-05-07 19:00 | 52.30836 | 4.77606 | -2 ft | 23 kts | 4° |
| 2026-05-07 19:00 | 52.30981 | 4.77614 | -2 ft | 18 kts | 348° |
| 2026-05-07 19:00 | 52.31055 | 4.77474 | -2 ft | 16 kts | 301° |
| 2026-05-07 19:00 | 52.31070 | 4.77301 | -2 ft | 15 kts | 274° |
| 2026-05-07 19:01 | 52.31076 | 4.77131 | -2 ft | 15 kts | 274° |
| 2026-05-07 19:01 | 52.31083 | 4.76971 | -2 ft | 12 kts | 275° |
| 2026-05-07 19:01 | 52.31057 | 4.76848 | -2 ft | 11 kts | 223° |
| 2026-05-07 19:01 | 52.31005 | 4.76767 | -2 ft | 10 kts | 234° |
| 2026-05-07 19:02 | 52.30943 | 4.76717 | -2 ft | 9 kts | 187° |
| 2026-05-07 19:02 | 52.30919 | 4.76713 | -2 ft | 2 kts | 185° |
| 2026-05-07 19:02 | 52.30916 | 4.76713 | -2 ft | 1 kts | 184° |
| 2026-05-07 19:02 | 52.30914 | 4.76713 | -2 ft | 0 kts | 184° |